sensor_id;sensor_type;location;lat;lon;timestamp;temperature;humidity
23873;DHT22;42884;50.718;4.630;2023-04-25T00:01:48;10.10;99.90
23873;DHT22;42884;50.718;4.630;2023-04-25T00:04:14;9.80;99.90
23873;DHT22;42884;50.718;4.630;2023-04-25T00:06:39;9.90;99.90
23873;DHT22;42884;50.718;4.630;2023-04-25T00:09:06;9.90;99.90
23873;DHT22;42884;50.718;4.630;2023-04-25T00:11:36;9.90;99.90
23873;DHT22;42884;50.718;4.630;2023-04-25T00:14:03;9.90;99.90
23873;DHT22;42884;50.718;4.630;2023-04-25T00:16:29;10.00;99.90
23873;DHT22;42884;50.718;4.630;2023-04-25T00:18:59;10.00;99.90
23873;DHT22;42884;50.718;4.630;2023-04-25T00:21:24;10.00;99.90
23873;DHT22;42884;50.718;4.630;2023-04-25T00:23:52;10.00;99.90
23873;DHT22;42884;50.718;4.630;2023-04-25T00:26:18;10.00;99.90
23873;DHT22;42884;50.718;4.630;2023-04-25T00:28:44;9.90;99.90
23873;DHT22;42884;50.718;4.630;2023-04-25T00:31:10;9.80;99.90
23873;DHT22;42884;50.718;4.630;2023-04-25T00:33:36;9.80;99.90
23873;DHT22;42884;50.718;4.630;2023-04-25T00:36:01;9.80;99.90
23873;DHT22;42884;50.718;4.630;2023-04-25T00:38:27;9.80;99.90
23873;DHT22;42884;50.718;4.630;2023-04-25T00:40:53;9.90;99.90
23873;DHT22;42884;50.718;4.630;2023-04-25T00:43:21;9.80;99.90
23873;DHT22;42884;50.718;4.630;2023-04-25T00:45:47;9.90;99.90
23873;DHT22;42884;50.718;4.630;2023-04-25T00:48:17;9.80;99.90
23873;DHT22;42884;50.718;4.630;2023-04-25T00:50:53;9.90;99.90
23873;DHT22;42884;50.718;4.630;2023-04-25T00:53:21;10.00;99.90
23873;DHT22;42884;50.718;4.630;2023-04-25T00:55:47;9.90;99.90
23873;DHT22;42884;50.718;4.630;2023-04-25T00:58:13;9.90;99.90
23873;DHT22;42884;50.718;4.630;2023-04-25T01:00:40;9.90;99.90
23873;DHT22;42884;50.718;4.630;2023-04-25T01:03:06;10.00;99.90
23873;DHT22;42884;50.718;4.630;2023-04-25T01:05:32;9.90;99.90
23873;DHT22;42884;50.718;4.630;2023-04-25T01:07:58;9.90;99.90
23873;DHT22;42884;50.718;4.630;2023-04-25T01:10:24;9.80;99.90
23873;DHT22;42884;50.718;4.630;2023-04-25T01:12:50;9.80;99.90
23873;DHT22;42884;50.718;4.630;2023-04-25T01:15:16;9.90;99.90
23873;DHT22;42884;50.718;4.630;2023-04-25T01:17:42;9.90;99.90
23873;DHT22;42884;50.718;4.630;2023-04-25T01:20:10;9.80;99.90
23873;DHT22;42884;50.718;4.630;2023-04-25T01:22:36;9.80;99.90
23873;DHT22;42884;50.718;4.630;2023-04-25T01:25:02;9.80;99.90
23873;DHT22;42884;50.718;4.630;2023-04-25T01:27:28;9.80;99.90
23873;DHT22;42884;50.718;4.630;2023-04-25T01:29:55;9.80;99.90
23873;DHT22;42884;50.718;4.630;2023-04-25T01:32:22;9.80;99.90
23873;DHT22;42884;50.718;4.630;2023-04-25T01:34:49;9.80;99.90
23873;DHT22;42884;50.718;4.630;2023-04-25T01:37:14;9.70;99.90
23873;DHT22;42884;50.718;4.630;2023-04-25T01:39:42;9.70;99.90
23873;DHT22;42884;50.718;4.630;2023-04-25T01:42:07;9.80;99.90
23873;DHT22;42884;50.718;4.630;2023-04-25T01:44:33;9.70;99.90
23873;DHT22;42884;50.718;4.630;2023-04-25T01:46:59;9.50;99.90
23873;DHT22;42884;50.718;4.630;2023-04-25T01:49:24;9.30;99.90
23873;DHT22;42884;50.718;4.630;2023-04-25T01:51:50;9.30;99.90
23873;DHT22;42884;50.718;4.630;2023-04-25T01:54:17;9.50;99.90
23873;DHT22;42884;50.718;4.630;2023-04-25T01:56:49;9.50;99.90
23873;DHT22;42884;50.718;4.630;2023-04-25T01:59:15;9.50;99.90
23873;DHT22;42884;50.718;4.630;2023-04-25T02:01:40;9.40;99.90
23873;DHT22;42884;50.718;4.630;2023-04-25T02:04:06;9.40;99.90
23873;DHT22;42884;50.718;4.630;2023-04-25T02:06:32;9.40;99.90
23873;DHT22;42884;50.718;4.630;2023-04-25T02:08:58;9.50;99.90
23873;DHT22;42884;50.718;4.630;2023-04-25T02:11:23;9.50;99.90
23873;DHT22;42884;50.718;4.630;2023-04-25T02:13:49;9.50;99.90
23873;DHT22;42884;50.718;4.630;2023-04-25T02:16:15;9.50;99.90
23873;DHT22;42884;50.718;4.630;2023-04-25T02:18:40;9.50;99.90
23873;DHT22;42884;50.718;4.630;2023-04-25T02:21:06;9.50;99.90
23873;DHT22;42884;50.718;4.630;2023-04-25T02:23:32;9.50;99.90
23873;DHT22;42884;50.718;4.630;2023-04-25T02:25:58;9.50;99.90
23873;DHT22;42884;50.718;4.630;2023-04-25T02:28:24;9.50;99.90
23873;DHT22;42884;50.718;4.630;2023-04-25T02:30:51;9.40;99.90
23873;DHT22;42884;50.718;4.630;2023-04-25T02:33:17;9.50;99.90
23873;DHT22;42884;50.718;4.630;2023-04-25T02:35:43;9.50;99.90
23873;DHT22;42884;50.718;4.630;2023-04-25T02:38:08;9.40;99.90
23873;DHT22;42884;50.718;4.630;2023-04-25T02:40:34;9.40;99.90
23873;DHT22;42884;50.718;4.630;2023-04-25T02:43:00;9.40;99.90
23873;DHT22;42884;50.718;4.630;2023-04-25T02:45:26;9.50;99.90
23873;DHT22;42884;50.718;4.630;2023-04-25T02:47:51;9.50;99.90
23873;DHT22;42884;50.718;4.630;2023-04-25T02:50:17;9.40;99.90
23873;DHT22;42884;50.718;4.630;2023-04-25T02:52:43;9.50;99.90
23873;DHT22;42884;50.718;4.630;2023-04-25T02:55:10;9.50;99.90
23873;DHT22;42884;50.718;4.630;2023-04-25T02:57:36;9.40;99.90
23873;DHT22;42884;50.718;4.630;2023-04-25T03:00:02;9.40;99.90
23873;DHT22;42884;50.718;4.630;2023-04-25T03:02:30;9.40;99.90
23873;DHT22;42884;50.718;4.630;2023-04-25T03:04:55;9.30;99.90
23873;DHT22;42884;50.718;4.630;2023-04-25T03:07:21;9.40;99.90
23873;DHT22;42884;50.718;4.630;2023-04-25T03:09:47;9.40;99.90
23873;DHT22;42884;50.718;4.630;2023-04-25T03:12:12;9.40;99.90
23873;DHT22;42884;50.718;4.630;2023-04-25T03:14:38;9.30;99.90
23873;DHT22;42884;50.718;4.630;2023-04-25T03:17:04;9.30;99.90
23873;DHT22;42884;50.718;4.630;2023-04-25T03:19:30;9.20;99.90
23873;DHT22;42884;50.718;4.630;2023-04-25T03:21:55;9.10;99.90
23873;DHT22;42884;50.718;4.630;2023-04-25T03:24:21;9.10;99.90
23873;DHT22;42884;50.718;4.630;2023-04-25T03:26:47;9.20;99.90
23873;DHT22;42884;50.718;4.630;2023-04-25T03:29:13;9.20;99.90
23873;DHT22;42884;50.718;4.630;2023-04-25T03:31:38;9.20;99.90
23873;DHT22;42884;50.718;4.630;2023-04-25T03:34:04;9.10;99.90
23873;DHT22;42884;50.718;4.630;2023-04-25T03:36:30;9.10;99.90
23873;DHT22;42884;50.718;4.630;2023-04-25T03:38:55;9.00;99.90
23873;DHT22;42884;50.718;4.630;2023-04-25T03:41:21;9.00;99.90
23873;DHT22;42884;50.718;4.630;2023-04-25T03:43:47;9.10;99.90
23873;DHT22;42884;50.718;4.630;2023-04-25T03:46:13;9.10;99.90
23873;DHT22;42884;50.718;4.630;2023-04-25T03:48:38;9.10;99.90
23873;DHT22;42884;50.718;4.630;2023-04-25T03:51:04;9.10;99.90
23873;DHT22;42884;50.718;4.630;2023-04-25T03:53:30;9.10;99.90
23873;DHT22;42884;50.718;4.630;2023-04-25T03:55:55;9.10;99.90
23873;DHT22;42884;50.718;4.630;2023-04-25T03:58:21;9.10;99.90
23873;DHT22;42884;50.718;4.630;2023-04-25T04:00:48;9.10;99.90
23873;DHT22;42884;50.718;4.630;2023-04-25T04:03:14;9.10;99.90
23873;DHT22;42884;50.718;4.630;2023-04-25T04:05:39;8.90;99.90
23873;DHT22;42884;50.718;4.630;2023-04-25T04:08:06;8.90;99.90
23873;DHT22;42884;50.718;4.630;2023-04-25T04:10:32;9.00;99.90
23873;DHT22;42884;50.718;4.630;2023-04-25T04:12:57;8.90;99.90
23873;DHT22;42884;50.718;4.630;2023-04-25T04:15:23;9.00;99.90
23873;DHT22;42884;50.718;4.630;2023-04-25T04:17:49;9.00;99.90
23873;DHT22;42884;50.718;4.630;2023-04-25T04:20:14;9.00;99.90
23873;DHT22;42884;50.718;4.630;2023-04-25T04:22:40;9.00;99.90
23873;DHT22;42884;50.718;4.630;2023-04-25T04:25:06;9.00;99.90
23873;DHT22;42884;50.718;4.630;2023-04-25T04:27:32;9.00;99.90
23873;DHT22;42884;50.718;4.630;2023-04-25T04:29:58;8.90;99.90
23873;DHT22;42884;50.718;4.630;2023-04-25T04:32:24;8.80;99.90
23873;DHT22;42884;50.718;4.630;2023-04-25T04:34:50;8.70;99.90
23873;DHT22;42884;50.718;4.630;2023-04-25T04:37:17;8.80;99.90
23873;DHT22;42884;50.718;4.630;2023-04-25T04:39:43;8.80;99.90
23873;DHT22;42884;50.718;4.630;2023-04-25T04:42:09;8.60;99.90
23873;DHT22;42884;50.718;4.630;2023-04-25T04:44:36;8.70;99.90
23873;DHT22;42884;50.718;4.630;2023-04-25T04:47:04;8.60;99.90
23873;DHT22;42884;50.718;4.630;2023-04-25T04:49:32;8.70;99.90
23873;DHT22;42884;50.718;4.630;2023-04-25T04:51:57;8.70;99.90
23873;DHT22;42884;50.718;4.630;2023-04-25T04:54:25;8.70;99.90
23873;DHT22;42884;50.718;4.630;2023-04-25T04:56:51;8.70;99.90
23873;DHT22;42884;50.718;4.630;2023-04-25T04:59:17;8.70;99.90
23873;DHT22;42884;50.718;4.630;2023-04-25T05:01:43;8.70;99.90
23873;DHT22;42884;50.718;4.630;2023-04-25T05:04:09;8.70;99.90
23873;DHT22;42884;50.718;4.630;2023-04-25T05:06:35;8.70;99.90
23873;DHT22;42884;50.718;4.630;2023-04-25T05:09:01;8.80;99.90
23873;DHT22;42884;50.718;4.630;2023-04-25T05:11:27;8.70;99.90
23873;DHT22;42884;50.718;4.630;2023-04-25T05:13:53;8.80;99.90
23873;DHT22;42884;50.718;4.630;2023-04-25T05:16:19;8.70;99.90
23873;DHT22;42884;50.718;4.630;2023-04-25T05:18:47;8.70;99.90
23873;DHT22;42884;50.718;4.630;2023-04-25T05:21:13;8.80;99.90
23873;DHT22;42884;50.718;4.630;2023-04-25T05:23:38;8.80;99.90
23873;DHT22;42884;50.718;4.630;2023-04-25T05:26:04;8.80;99.90
23873;DHT22;42884;50.718;4.630;2023-04-25T05:28:39;8.80;99.90
23873;DHT22;42884;50.718;4.630;2023-04-25T05:31:06;8.90;99.90
23873;DHT22;42884;50.718;4.630;2023-04-25T05:33:32;8.90;99.90
23873;DHT22;42884;50.718;4.630;2023-04-25T05:35:58;9.00;99.90
23873;DHT22;42884;50.718;4.630;2023-04-25T05:38:24;9.00;99.90
23873;DHT22;42884;50.718;4.630;2023-04-25T05:40:50;9.00;99.90
23873;DHT22;42884;50.718;4.630;2023-04-25T05:43:15;9.00;99.90
23873;DHT22;42884;50.718;4.630;2023-04-25T05:45:41;9.10;99.90
23873;DHT22;42884;50.718;4.630;2023-04-25T05:48:07;9.10;99.90
23873;DHT22;42884;50.718;4.630;2023-04-25T05:50:32;9.10;99.90
23873;DHT22;42884;50.718;4.630;2023-04-25T05:52:58;9.20;99.90
23873;DHT22;42884;50.718;4.630;2023-04-25T05:55:24;9.10;99.90
23873;DHT22;42884;50.718;4.630;2023-04-25T05:57:50;9.10;99.90
23873;DHT22;42884;50.718;4.630;2023-04-25T06:00:15;9.10;99.90
23873;DHT22;42884;50.718;4.630;2023-04-25T06:02:42;9.10;99.90
23873;DHT22;42884;50.718;4.630;2023-04-25T06:05:08;9.00;99.90
23873;DHT22;42884;50.718;4.630;2023-04-25T06:07:34;9.10;99.90
23873;DHT22;42884;50.718;4.630;2023-04-25T06:10:00;9.10;99.90
23873;DHT22;42884;50.718;4.630;2023-04-25T06:12:26;9.10;99.90
23873;DHT22;42884;50.718;4.630;2023-04-25T06:14:52;9.00;99.90
23873;DHT22;42884;50.718;4.630;2023-04-25T06:17:18;9.10;99.90
23873;DHT22;42884;50.718;4.630;2023-04-25T06:19:43;9.10;99.90
23873;DHT22;42884;50.718;4.630;2023-04-25T06:22:10;9.10;99.90
23873;DHT22;42884;50.718;4.630;2023-04-25T06:24:35;8.90;99.90
23873;DHT22;42884;50.718;4.630;2023-04-25T06:27:01;9.00;99.90
23873;DHT22;42884;50.718;4.630;2023-04-25T06:29:27;9.10;99.90
23873;DHT22;42884;50.718;4.630;2023-04-25T06:31:52;9.20;99.90
23873;DHT22;42884;50.718;4.630;2023-04-25T06:34:18;9.10;99.90
23873;DHT22;42884;50.718;4.630;2023-04-25T06:36:44;9.20;99.90
23873;DHT22;42884;50.718;4.630;2023-04-25T06:39:10;9.20;99.90
23873;DHT22;42884;50.718;4.630;2023-04-25T06:41:36;9.20;99.90
23873;DHT22;42884;50.718;4.630;2023-04-25T06:44:02;9.20;99.90
23873;DHT22;42884;50.718;4.630;2023-04-25T06:46:28;9.30;99.90
23873;DHT22;42884;50.718;4.630;2023-04-25T06:48:54;9.30;99.90
23873;DHT22;42884;50.718;4.630;2023-04-25T06:51:19;9.40;99.90
23873;DHT22;42884;50.718;4.630;2023-04-25T06:53:45;9.40;99.90
23873;DHT22;42884;50.718;4.630;2023-04-25T06:56:11;9.40;99.90
23873;DHT22;42884;50.718;4.630;2023-04-25T06:58:37;9.50;99.90
23873;DHT22;42884;50.718;4.630;2023-04-25T07:01:03;9.60;99.90
23873;DHT22;42884;50.718;4.630;2023-04-25T07:03:28;9.70;99.90
23873;DHT22;42884;50.718;4.630;2023-04-25T07:05:54;9.70;99.90
23873;DHT22;42884;50.718;4.630;2023-04-25T07:08:20;9.80;99.90
23873;DHT22;42884;50.718;4.630;2023-04-25T07:10:46;9.80;99.90
23873;DHT22;42884;50.718;4.630;2023-04-25T07:13:12;9.90;99.90
23873;DHT22;42884;50.718;4.630;2023-04-25T07:15:38;10.00;99.90
23873;DHT22;42884;50.718;4.630;2023-04-25T07:18:04;9.90;99.90
23873;DHT22;42884;50.718;4.630;2023-04-25T07:20:29;10.00;99.90
23873;DHT22;42884;50.718;4.630;2023-04-25T07:22:56;10.10;99.90
23873;DHT22;42884;50.718;4.630;2023-04-25T07:25:22;10.20;99.90
23873;DHT22;42884;50.718;4.630;2023-04-25T07:27:48;10.10;99.90
23873;DHT22;42884;50.718;4.630;2023-04-25T07:30:14;10.30;99.90
23873;DHT22;42884;50.718;4.630;2023-04-25T07:32:40;10.30;99.90
23873;DHT22;42884;50.718;4.630;2023-04-25T07:35:06;10.50;99.90
23873;DHT22;42884;50.718;4.630;2023-04-25T07:37:33;10.50;99.90
23873;DHT22;42884;50.718;4.630;2023-04-25T07:39:59;10.60;99.90
23873;DHT22;42884;50.718;4.630;2023-04-25T07:42:25;10.60;99.90
23873;DHT22;42884;50.718;4.630;2023-04-25T07:44:51;10.70;99.90
23873;DHT22;42884;50.718;4.630;2023-04-25T07:47:17;10.60;99.90
23873;DHT22;42884;50.718;4.630;2023-04-25T07:49:44;10.70;99.90
23873;DHT22;42884;50.718;4.630;2023-04-25T07:52:10;10.60;99.90
23873;DHT22;42884;50.718;4.630;2023-04-25T07:54:36;10.50;99.90
23873;DHT22;42884;50.718;4.630;2023-04-25T07:57:02;10.50;99.90
23873;DHT22;42884;50.718;4.630;2023-04-25T07:59:28;10.50;99.90
23873;DHT22;42884;50.718;4.630;2023-04-25T08:01:53;10.40;99.90
23873;DHT22;42884;50.718;4.630;2023-04-25T08:04:19;10.40;99.90
23873;DHT22;42884;50.718;4.630;2023-04-25T08:06:45;10.40;99.90
23873;DHT22;42884;50.718;4.630;2023-04-25T08:09:11;10.40;99.90
23873;DHT22;42884;50.718;4.630;2023-04-25T08:11:37;10.40;99.90
23873;DHT22;42884;50.718;4.630;2023-04-25T08:14:03;10.50;99.90
23873;DHT22;42884;50.718;4.630;2023-04-25T08:16:29;10.60;99.90
23873;DHT22;42884;50.718;4.630;2023-04-25T08:18:55;10.70;99.90
23873;DHT22;42884;50.718;4.630;2023-04-25T08:21:21;10.90;99.90
23873;DHT22;42884;50.718;4.630;2023-04-25T08:23:47;11.10;99.90
23873;DHT22;42884;50.718;4.630;2023-04-25T08:26:12;10.90;99.90
23873;DHT22;42884;50.718;4.630;2023-04-25T08:28:38;10.90;99.90
23873;DHT22;42884;50.718;4.630;2023-04-25T08:31:04;11.00;99.90
23873;DHT22;42884;50.718;4.630;2023-04-25T08:33:30;11.10;99.90
23873;DHT22;42884;50.718;4.630;2023-04-25T08:35:56;11.10;99.90
23873;DHT22;42884;50.718;4.630;2023-04-25T08:38:22;11.20;99.90
23873;DHT22;42884;50.718;4.630;2023-04-25T08:40:51;11.30;99.90
23873;DHT22;42884;50.718;4.630;2023-04-25T08:43:19;11.50;99.90
23873;DHT22;42884;50.718;4.630;2023-04-25T08:45:45;11.70;99.90
23873;DHT22;42884;50.718;4.630;2023-04-25T08:48:16;11.90;99.90
23873;DHT22;42884;50.718;4.630;2023-04-25T08:50:53;12.10;99.90
23873;DHT22;42884;50.718;4.630;2023-04-25T08:53:27;12.00;99.90
23873;DHT22;42884;50.718;4.630;2023-04-25T08:55:56;12.10;99.90
23873;DHT22;42884;50.718;4.630;2023-04-25T08:58:23;12.40;99.90
23873;DHT22;42884;50.718;4.630;2023-04-25T09:00:49;12.50;99.90
23873;DHT22;42884;50.718;4.630;2023-04-25T09:03:15;12.60;99.90
23873;DHT22;42884;50.718;4.630;2023-04-25T09:05:41;12.70;99.90
23873;DHT22;42884;50.718;4.630;2023-04-25T09:08:07;12.60;99.90
23873;DHT22;42884;50.718;4.630;2023-04-25T09:10:33;12.60;99.90
23873;DHT22;42884;50.718;4.630;2023-04-25T09:13:07;12.60;99.90
23873;DHT22;42884;50.718;4.630;2023-04-25T09:15:53;12.50;99.90
23873;DHT22;42884;50.718;4.630;2023-04-25T09:18:27;12.60;99.90
23873;DHT22;42884;50.718;4.630;2023-04-25T09:20:54;12.60;99.90
23873;DHT22;42884;50.718;4.630;2023-04-25T09:23:21;12.60;99.90
23873;DHT22;42884;50.718;4.630;2023-04-25T09:25:49;12.60;99.90
23873;DHT22;42884;50.718;4.630;2023-04-25T09:28:14;12.70;99.90
23873;DHT22;42884;50.718;4.630;2023-04-25T09:30:42;12.90;99.90
23873;DHT22;42884;50.718;4.630;2023-04-25T09:33:09;13.00;99.90
23873;DHT22;42884;50.718;4.630;2023-04-25T09:35:40;13.10;99.90
23873;DHT22;42884;50.718;4.630;2023-04-25T09:38:09;13.30;99.90
23873;DHT22;42884;50.718;4.630;2023-04-25T09:40:43;13.90;99.90
23873;DHT22;42884;50.718;4.630;2023-04-25T09:43:12;14.50;99.90
23873;DHT22;42884;50.718;4.630;2023-04-25T09:45:43;15.10;99.90
23873;DHT22;42884;50.718;4.630;2023-04-25T09:48:11;14.90;99.90
23873;DHT22;42884;50.718;4.630;2023-04-25T09:50:38;14.90;99.90
23873;DHT22;42884;50.718;4.630;2023-04-25T09:53:05;14.90;99.90
23873;DHT22;42884;50.718;4.630;2023-04-25T09:55:34;15.00;99.90
23873;DHT22;42884;50.718;4.630;2023-04-25T09:58:04;14.90;99.90
23873;DHT22;42884;50.718;4.630;2023-04-25T10:00:32;14.80;99.90
23873;DHT22;42884;50.718;4.630;2023-04-25T10:03:01;14.80;99.90
23873;DHT22;42884;50.718;4.630;2023-04-25T10:05:30;14.70;99.90
23873;DHT22;42884;50.718;4.630;2023-04-25T10:08:00;14.70;99.90
23873;DHT22;42884;50.718;4.630;2023-04-25T10:10:28;14.60;99.90
23873;DHT22;42884;50.718;4.630;2023-04-25T10:12:56;14.60;99.90
23873;DHT22;42884;50.718;4.630;2023-04-25T10:15:22;14.20;99.90
23873;DHT22;42884;50.718;4.630;2023-04-25T10:17:49;14.00;99.90
23873;DHT22;42884;50.718;4.630;2023-04-25T10:20:16;13.90;99.90
23873;DHT22;42884;50.718;4.630;2023-04-25T10:22:44;13.50;99.90
23873;DHT22;42884;50.718;4.630;2023-04-25T10:25:11;13.10;99.90
23873;DHT22;42884;50.718;4.630;2023-04-25T10:27:38;13.00;99.90
23873;DHT22;42884;50.718;4.630;2023-04-25T10:30:13;13.00;99.90
23873;DHT22;42884;50.718;4.630;2023-04-25T10:32:43;13.00;99.90
23873;DHT22;42884;50.718;4.630;2023-04-25T10:35:24;13.20;99.90
23873;DHT22;42884;50.718;4.630;2023-04-25T10:38:09;13.20;99.90
23873;DHT22;42884;50.718;4.630;2023-04-25T10:40:36;13.10;99.90
23873;DHT22;42884;50.718;4.630;2023-04-25T10:45:59;13.30;99.90
23873;DHT22;42884;50.718;4.630;2023-04-25T10:48:29;13.30;99.90
23873;DHT22;42884;50.718;4.630;2023-04-25T10:51:15;13.90;99.90
23873;DHT22;42884;50.718;4.630;2023-04-25T10:53:42;14.50;99.90
23873;DHT22;42884;50.718;4.630;2023-04-25T10:56:18;15.20;99.90
23873;DHT22;42884;50.718;4.630;2023-04-25T10:58:45;15.60;99.90
23873;DHT22;42884;50.718;4.630;2023-04-25T11:01:13;15.80;99.90
23873;DHT22;42884;50.718;4.630;2023-04-25T11:03:43;15.80;99.90
23873;DHT22;42884;50.718;4.630;2023-04-25T11:09:00;15.40;99.90
23873;DHT22;42884;50.718;4.630;2023-04-25T11:11:26;15.80;99.90
23873;DHT22;42884;50.718;4.630;2023-04-25T11:13:52;16.50;99.90
23873;DHT22;42884;50.718;4.630;2023-04-25T11:16:18;17.00;99.90
23873;DHT22;42884;50.718;4.630;2023-04-25T11:18:44;17.00;99.90
23873;DHT22;42884;50.718;4.630;2023-04-25T11:21:11;17.20;99.90
23873;DHT22;42884;50.718;4.630;2023-04-25T11:23:37;17.10;99.90
23873;DHT22;42884;50.718;4.630;2023-04-25T11:26:03;16.80;99.90
23873;DHT22;42884;50.718;4.630;2023-04-25T11:28:29;16.60;99.90
23873;DHT22;42884;50.718;4.630;2023-04-25T11:30:56;16.20;99.90
23873;DHT22;42884;50.718;4.630;2023-04-25T11:33:25;15.90;99.90
23873;DHT22;42884;50.718;4.630;2023-04-25T11:35:54;16.00;99.90
23873;DHT22;42884;50.718;4.630;2023-04-25T11:38:20;16.00;99.90
23873;DHT22;42884;50.718;4.630;2023-04-25T11:40:53;16.00;99.90
23873;DHT22;42884;50.718;4.630;2023-04-25T11:43:22;16.00;99.90
23873;DHT22;42884;50.718;4.630;2023-04-25T11:45:49;16.20;99.90
23873;DHT22;42884;50.718;4.630;2023-04-25T11:48:16;16.20;99.90
23873;DHT22;42884;50.718;4.630;2023-04-25T11:50:42;16.10;99.90
23873;DHT22;42884;50.718;4.630;2023-04-25T11:53:08;16.10;99.90
23873;DHT22;42884;50.718;4.630;2023-04-25T11:55:34;15.70;99.90
23873;DHT22;42884;50.718;4.630;2023-04-25T11:58:00;15.50;99.90
23873;DHT22;42884;50.718;4.630;2023-04-25T12:00:28;15.20;99.90
23873;DHT22;42884;50.718;4.630;2023-04-25T12:02:55;15.00;99.90
23873;DHT22;42884;50.718;4.630;2023-04-25T12:05:25;14.80;99.90
23873;DHT22;42884;50.718;4.630;2023-04-25T12:07:51;14.80;99.90
23873;DHT22;42884;50.718;4.630;2023-04-25T12:10:18;14.80;99.90
23873;DHT22;42884;50.718;4.630;2023-04-25T12:12:45;14.80;99.90
23873;DHT22;42884;50.718;4.630;2023-04-25T12:15:23;15.00;99.90
23873;DHT22;42884;50.718;4.630;2023-04-25T12:17:50;15.00;99.90
23873;DHT22;42884;50.718;4.630;2023-04-25T12:20:20;15.00;99.90
23873;DHT22;42884;50.718;4.630;2023-04-25T12:22:47;15.50;99.90
23873;DHT22;42884;50.718;4.630;2023-04-25T12:25:40;16.10;99.90
23873;DHT22;42884;50.718;4.630;2023-04-25T12:28:16;16.30;99.90
23873;DHT22;42884;50.718;4.630;2023-04-25T12:31:00;16.80;99.90
23873;DHT22;42884;50.718;4.630;2023-04-25T12:33:29;16.90;99.90
23873;DHT22;42884;50.718;4.630;2023-04-25T12:35:56;17.10;99.90
23873;DHT22;42884;50.718;4.630;2023-04-25T12:38:27;16.90;99.90
23873;DHT22;42884;50.718;4.630;2023-04-25T12:40:54;16.80;99.90
23873;DHT22;42884;50.718;4.630;2023-04-25T12:43:20;16.70;99.90
23873;DHT22;42884;50.718;4.630;2023-04-25T12:45:50;16.50;99.90
23873;DHT22;42884;50.718;4.630;2023-04-25T12:48:17;16.30;99.90
23873;DHT22;42884;50.718;4.630;2023-04-25T12:50:44;15.90;99.90
23873;DHT22;42884;50.718;4.630;2023-04-25T12:53:10;15.70;99.90
23873;DHT22;42884;50.718;4.630;2023-04-25T12:55:37;15.60;99.90
23873;DHT22;42884;50.718;4.630;2023-04-25T12:58:02;15.40;99.90
23873;DHT22;42884;50.718;4.630;2023-04-25T13:00:29;15.30;99.90
23873;DHT22;42884;50.718;4.630;2023-04-25T13:02:55;15.40;99.90
23873;DHT22;42884;50.718;4.630;2023-04-25T13:05:21;15.90;99.90
23873;DHT22;42884;50.718;4.630;2023-04-25T13:07:47;16.40;99.90
23873;DHT22;42884;50.718;4.630;2023-04-25T13:10:12;16.80;99.90
23873;DHT22;42884;50.718;4.630;2023-04-25T13:12:38;17.10;99.90
23873;DHT22;42884;50.718;4.630;2023-04-25T13:15:04;17.00;99.90
23873;DHT22;42884;50.718;4.630;2023-04-25T13:17:30;16.70;99.90
23873;DHT22;42884;50.718;4.630;2023-04-25T13:19:56;16.50;99.90
23873;DHT22;42884;50.718;4.630;2023-04-25T13:22:21;16.40;97.90
23873;DHT22;42884;50.718;4.630;2023-04-25T13:24:47;16.30;99.90
23873;DHT22;42884;50.718;4.630;2023-04-25T13:27:13;16.50;99.90
23873;DHT22;42884;50.718;4.630;2023-04-25T13:29:39;16.80;99.90
23873;DHT22;42884;50.718;4.630;2023-04-25T13:32:06;17.20;99.60
23873;DHT22;42884;50.718;4.630;2023-04-25T13:34:32;17.60;99.90
23873;DHT22;42884;50.718;4.630;2023-04-25T13:36:58;17.70;99.90
23873;DHT22;42884;50.718;4.630;2023-04-25T13:39:24;18.30;99.90
23873;DHT22;42884;50.718;4.630;2023-04-25T13:41:50;18.50;98.90
23873;DHT22;42884;50.718;4.630;2023-04-25T13:44:15;17.80;97.60
23873;DHT22;42884;50.718;4.630;2023-04-25T13:46:41;17.40;97.20
23873;DHT22;42884;50.718;4.630;2023-04-25T13:49:07;17.00;98.30
23873;DHT22;42884;50.718;4.630;2023-04-25T13:51:34;17.30;99.90
23873;DHT22;42884;50.718;4.630;2023-04-25T13:54:00;17.80;97.40
23873;DHT22;42884;50.718;4.630;2023-04-25T13:56:26;18.00;99.90
23873;DHT22;42884;50.718;4.630;2023-04-25T13:58:52;17.90;98.50
23873;DHT22;42884;50.718;4.630;2023-04-25T14:01:18;18.00;97.90
23873;DHT22;42884;50.718;4.630;2023-04-25T14:03:44;17.50;95.80
23873;DHT22;42884;50.718;4.630;2023-04-25T14:06:10;17.40;99.90
23873;DHT22;42884;50.718;4.630;2023-04-25T14:08:38;17.40;98.70
23873;DHT22;42884;50.718;4.630;2023-04-25T14:11:04;17.30;97.40
23873;DHT22;42884;50.718;4.630;2023-04-25T14:13:29;17.30;99.90
23873;DHT22;42884;50.718;4.630;2023-04-25T14:15:55;17.80;98.80
23873;DHT22;42884;50.718;4.630;2023-04-25T14:18:21;18.20;99.90
23873;DHT22;42884;50.718;4.630;2023-04-25T14:20:47;18.10;97.90
23873;DHT22;42884;50.718;4.630;2023-04-25T14:23:13;18.00;98.50
23873;DHT22;42884;50.718;4.630;2023-04-25T14:25:39;18.10;99.50
23873;DHT22;42884;50.718;4.630;2023-04-25T14:28:05;18.20;99.50
23873;DHT22;42884;50.718;4.630;2023-04-25T14:30:31;18.10;94.60
23873;DHT22;42884;50.718;4.630;2023-04-25T14:32:57;17.80;96.20
23873;DHT22;42884;50.718;4.630;2023-04-25T14:35:22;17.40;96.60
23873;DHT22;42884;50.718;4.630;2023-04-25T14:37:48;17.20;98.90
23873;DHT22;42884;50.718;4.630;2023-04-25T14:40:14;17.20;97.60
23873;DHT22;42884;50.718;4.630;2023-04-25T14:42:42;17.00;97.30
23873;DHT22;42884;50.718;4.630;2023-04-25T14:45:08;16.90;97.10
23873;DHT22;42884;50.718;4.630;2023-04-25T14:47:37;16.70;98.30
23873;DHT22;42884;50.718;4.630;2023-04-25T14:50:03;16.50;98.40
23873;DHT22;42884;50.718;4.630;2023-04-25T14:52:30;16.30;96.50
23873;DHT22;42884;50.718;4.630;2023-04-25T14:54:56;16.10;98.70
23873;DHT22;42884;50.718;4.630;2023-04-25T14:57:22;16.40;99.90
23873;DHT22;42884;50.718;4.630;2023-04-25T14:59:47;16.70;99.20
23873;DHT22;42884;50.718;4.630;2023-04-25T15:02:13;17.00;96.10
23873;DHT22;42884;50.718;4.630;2023-04-25T15:04:39;17.30;99.90
23873;DHT22;42884;50.718;4.630;2023-04-25T15:07:05;17.30;94.20
23873;DHT22;42884;50.718;4.630;2023-04-25T15:09:31;17.40;97.70
23873;DHT22;42884;50.718;4.630;2023-04-25T15:11:57;17.20;95.40
23873;DHT22;42884;50.718;4.630;2023-04-25T15:14:23;16.70;95.80
23873;DHT22;42884;50.718;4.630;2023-04-25T15:16:49;16.60;96.60
23873;DHT22;42884;50.718;4.630;2023-04-25T15:19:15;16.50;95.60
23873;DHT22;42884;50.718;4.630;2023-04-25T15:21:41;16.50;95.10
23873;DHT22;42884;50.718;4.630;2023-04-25T15:24:07;16.30;96.90
23873;DHT22;42884;50.718;4.630;2023-04-25T15:26:33;16.00;96.20
23873;DHT22;42884;50.718;4.630;2023-04-25T15:28:58;16.20;97.70
23873;DHT22;42884;50.718;4.630;2023-04-25T15:31:24;15.80;95.20
23873;DHT22;42884;50.718;4.630;2023-04-25T15:33:50;15.70;96.90
23873;DHT22;42884;50.718;4.630;2023-04-25T15:36:16;15.60;97.80
23873;DHT22;42884;50.718;4.630;2023-04-25T15:38:43;15.50;97.00
23873;DHT22;42884;50.718;4.630;2023-04-25T15:41:09;15.30;97.20